createdAt,value
2018-11-07T00:00:47.097Z,7.20
2018-11-07T00:03:15.423Z,7.20
2018-11-07T00:05:43.596Z,7.20
2018-11-07T00:08:11.927Z,7.10
2018-11-07T00:10:40.049Z,7.10
2018-11-07T00:13:08.242Z,7.10
2018-11-07T00:15:36.432Z,7.10
2018-11-07T00:18:04.661Z,7.00
2018-11-07T00:20:32.833Z,7.00
2018-11-07T00:23:01.012Z,7.20
2018-11-07T00:25:29.201Z,7.30
2018-11-07T00:27:57.381Z,7.30
2018-11-07T00:30:25.561Z,7.30
2018-11-07T00:32:53.758Z,7.20
2018-11-07T00:35:21.935Z,7.20
2018-11-07T00:37:50.085Z,7.20
2018-11-07T00:40:18.247Z,7.20
2018-11-07T00:42:46.417Z,7.20
2018-11-07T00:45:14.601Z,7.10
2018-11-07T00:47:43.246Z,7.10
2018-11-07T00:50:13.769Z,7.10
2018-11-07T00:52:42.460Z,7.00
2018-11-07T00:55:10.932Z,7.00
2018-11-07T00:57:39.169Z,7.00
2018-11-07T01:00:11.895Z,7.10
2018-11-07T01:02:40.069Z,7.10
2018-11-07T01:05:08.839Z,7.10
2018-11-07T01:07:37.018Z,7.10
2018-11-07T01:10:06.101Z,7.10
2018-11-07T01:12:34.285Z,7.00
2018-11-07T01:15:02.483Z,7.00
2018-11-07T01:17:30.738Z,7.00
2018-11-07T01:19:58.993Z,7.00
2018-11-07T01:22:27.300Z,7.00
2018-11-07T01:24:55.470Z,7.00
2018-11-07T01:27:23.638Z,7.00
2018-11-07T01:29:51.792Z,7.00
2018-11-07T01:32:19.969Z,7.00
2018-11-07T01:34:48.144Z,6.90
2018-11-07T01:37:16.335Z,6.90
2018-11-07T01:39:44.575Z,6.90
2018-11-07T01:42:12.851Z,6.90
2018-11-07T01:44:40.982Z,6.80
2018-11-07T01:47:09.345Z,6.80
2018-11-07T01:49:37.488Z,6.80
2018-11-07T01:52:05.702Z,6.80
2018-11-07T01:54:33.876Z,6.80
2018-11-07T01:57:02.041Z,6.80
2018-11-07T01:59:30.224Z,6.80
2018-11-07T02:01:58.433Z,6.70
2018-11-07T02:04:26.625Z,6.80
2018-11-07T02:06:54.802Z,6.80
2018-11-07T02:09:23.006Z,6.80
2018-11-07T02:11:51.189Z,6.80
2018-11-07T02:14:19.557Z,6.80
2018-11-07T02:16:47.745Z,6.70
2018-11-07T02:19:15.913Z,6.70
2018-11-07T02:21:44.073Z,6.70
2018-11-07T02:24:12.221Z,6.60
2018-11-07T02:26:40.526Z,6.60
2018-11-07T02:29:12.850Z,6.60
2018-11-07T02:31:42.251Z,6.60
2018-11-07T02:34:10.415Z,6.60
2018-11-07T02:36:38.634Z,6.60
2018-11-07T02:39:09.442Z,6.50
2018-11-07T02:41:37.850Z,6.60
2018-11-07T02:44:06.052Z,6.50
2018-11-07T02:46:34.301Z,6.50
2018-11-07T02:49:02.739Z,6.50
2018-11-07T02:51:30.906Z,6.50
2018-11-07T02:53:59.697Z,6.50
2018-11-07T02:56:27.892Z,6.50
2018-11-07T02:58:56.179Z,6.50
2018-11-07T03:01:24.367Z,6.50
2018-11-07T03:03:52.598Z,6.40
2018-11-07T03:06:20.765Z,6.40
2018-11-07T03:08:48.938Z,6.40
2018-11-07T03:11:17.106Z,6.40
2018-11-07T03:13:45.293Z,6.40
2018-11-07T03:16:13.469Z,6.30
2018-11-07T03:18:41.629Z,6.30
2018-11-07T03:21:09.806Z,6.20
2018-11-07T03:23:37.986Z,6.10
2018-11-07T03:26:06.149Z,6.10
2018-11-07T03:28:34.325Z,6.00
2018-11-07T03:31:02.614Z,6.10
2018-11-07T03:33:30.798Z,6.00
2018-11-07T03:35:58.965Z,6.00
2018-11-07T03:38:27.157Z,5.90
2018-11-07T03:40:55.342Z,5.90
2018-11-07T03:43:23.517Z,5.90
2018-11-07T03:45:57.549Z,5.90
2018-11-07T03:48:26.536Z,5.90
2018-11-07T03:50:54.706Z,5.90
2018-11-07T03:53:22.932Z,5.80
2018-11-07T03:55:51.078Z,5.70
2018-11-07T03:58:19.249Z,5.60
2018-11-07T04:00:47.470Z,5.60
2018-11-07T04:03:15.736Z,5.60
2018-11-07T04:05:43.895Z,5.50
2018-11-07T04:08:12.071Z,5.60
2018-11-07T04:10:40.289Z,5.60
2018-11-07T04:13:08.484Z,5.60
2018-11-07T04:15:36.649Z,5.50
2018-11-07T04:18:04.887Z,5.40
2018-11-07T04:20:33.110Z,5.50
2018-11-07T04:23:01.290Z,5.50
2018-11-07T04:25:29.470Z,5.50
2018-11-07T04:27:57.644Z,5.40
2018-11-07T04:30:25.814Z,5.40
2018-11-07T04:32:53.998Z,5.30
2018-11-07T04:35:22.151Z,5.30
2018-11-07T04:37:50.326Z,5.20
2018-11-07T04:40:18.498Z,5.20
2018-11-07T04:42:46.678Z,5.30
2018-11-07T04:45:14.878Z,5.20
2018-11-07T04:47:43.044Z,5.50
2018-11-07T04:50:12.124Z,5.50
2018-11-07T04:52:40.346Z,5.50
2018-11-07T04:55:08.546Z,5.50
2018-11-07T04:57:36.813Z,5.50
2018-11-07T05:00:07.364Z,5.50
2018-11-07T05:02:35.518Z,5.40
2018-11-07T05:05:03.709Z,5.40
2018-11-07T05:07:31.875Z,5.50
2018-11-07T05:10:00.057Z,5.50
2018-11-07T05:12:28.229Z,5.70
2018-11-07T05:14:56.417Z,5.70
2018-11-07T05:17:24.581Z,5.60
2018-11-07T05:19:52.783Z,5.50
2018-11-07T05:22:20.937Z,5.50
2018-11-07T05:24:49.117Z,5.50
2018-11-07T05:27:17.290Z,5.40
2018-11-07T05:29:45.489Z,5.30
2018-11-07T05:32:13.668Z,5.30
2018-11-07T05:34:41.836Z,5.20
2018-11-07T05:37:10.009Z,5.20
2018-11-07T05:39:38.186Z,5.20
2018-11-07T05:42:06.357Z,5.20
2018-11-07T05:44:34.546Z,5.30
2018-11-07T05:47:02.726Z,5.30
2018-11-07T05:49:30.913Z,5.30
2018-11-07T05:51:59.077Z,5.30
2018-11-07T05:54:27.244Z,5.20
2018-11-07T05:56:55.417Z,5.20
2018-11-07T05:59:23.645Z,5.10
2018-11-07T06:01:51.893Z,5.20
2018-11-07T06:04:20.105Z,5.30
2018-11-07T06:06:48.318Z,5.20
2018-11-07T06:09:16.513Z,5.20
2018-11-07T06:11:44.693Z,5.40
2018-11-07T06:14:12.902Z,5.40
2018-11-07T06:16:41.072Z,5.30
2018-11-07T06:19:09.289Z,5.30
2018-11-07T06:21:37.514Z,5.30
2018-11-07T06:24:05.877Z,5.30
2018-11-07T06:26:34.042Z,5.40
2018-11-07T06:29:02.225Z,5.40
2018-11-07T06:31:30.405Z,5.40
2018-11-07T06:33:58.620Z,5.40
2018-11-07T06:36:26.762Z,5.40
2018-11-07T06:38:55.982Z,5.50
2018-11-07T06:41:24.151Z,5.40
2018-11-07T06:43:52.315Z,5.30
2018-11-07T06:46:20.487Z,5.30
2018-11-07T06:48:48.634Z,5.30
2018-11-07T06:51:16.813Z,5.30
2018-11-07T06:53:44.973Z,5.30
2018-11-07T06:56:13.154Z,5.30
2018-11-07T06:58:41.331Z,5.30
2018-11-07T07:01:09.520Z,5.30
2018-11-07T07:03:37.678Z,5.30
2018-11-07T07:06:05.890Z,5.30
2018-11-07T07:08:34.066Z,5.30
2018-11-07T07:11:03.243Z,5.20
2018-11-07T07:13:31.517Z,5.20
2018-11-07T07:15:59.705Z,5.20
2018-11-07T07:18:28.057Z,5.20
2018-11-07T07:20:56.250Z,5.10
2018-11-07T07:23:24.458Z,5.10
2018-11-07T07:25:52.653Z,5.20
2018-11-07T07:28:20.826Z,5.20
2018-11-07T07:30:49.046Z,5.30
2018-11-07T07:33:17.294Z,5.30
2018-11-07T07:35:45.480Z,5.40
2018-11-07T07:38:13.687Z,5.50
2018-11-07T07:40:41.885Z,5.60
2018-11-07T07:43:10.096Z,5.60
2018-11-07T07:45:38.297Z,5.70
2018-11-07T07:48:06.519Z,5.90
2018-11-07T07:50:34.685Z,6.00
2018-11-07T07:53:02.928Z,6.10
2018-11-07T07:55:31.263Z,6.10
2018-11-07T07:58:00.055Z,6.10
2018-11-07T08:00:28.449Z,6.30
2018-11-07T08:02:56.882Z,6.60
2018-11-07T08:05:25.066Z,7.30
2018-11-07T08:07:53.235Z,7.80
2018-11-07T08:10:22.261Z,7.90
2018-11-07T08:12:50.989Z,8.00
2018-11-07T08:15:19.489Z,8.30
2018-11-07T08:17:47.887Z,8.10
2018-11-07T08:20:17.085Z,8.40
2018-11-07T08:22:46.140Z,8.50
2018-11-07T08:25:14.322Z,8.70
2018-11-07T08:27:42.527Z,8.80
2018-11-07T08:30:12.718Z,8.90
2018-11-07T08:32:41.188Z,8.90
2018-11-07T08:35:10.607Z,8.80
2018-11-07T08:37:39.304Z,8.60
2018-11-07T08:40:09.601Z,8.50
2018-11-07T08:42:38.298Z,8.50
2018-11-07T08:45:06.978Z,8.50
2018-11-07T08:47:35.166Z,8.60
2018-11-07T08:50:03.458Z,8.60
2018-11-07T08:52:31.633Z,8.60
2018-11-07T08:54:59.872Z,8.80
2018-11-07T08:57:28.027Z,8.80
2018-11-07T08:59:56.526Z,8.80
2018-11-07T09:02:24.828Z,8.90
2018-11-07T09:04:52.997Z,9.00
2018-11-07T09:07:21.186Z,9.20
2018-11-07T09:09:49.734Z,9.30
2018-11-07T09:12:17.910Z,9.50
2018-11-07T09:14:46.081Z,9.70
2018-11-07T09:17:14.258Z,9.90
2018-11-07T09:19:42.502Z,10.30
2018-11-07T09:22:10.628Z,10.80
2018-11-07T09:24:38.832Z,11.00
2018-11-07T09:27:07.030Z,11.70
2018-11-07T09:29:35.210Z,12.50
2018-11-07T09:32:03.422Z,12.90
2018-11-07T09:34:31.601Z,13.30
2018-11-07T09:36:59.806Z,14.10
2018-11-07T09:39:28.017Z,14.60
2018-11-07T09:41:56.183Z,14.90
2018-11-07T09:44:24.362Z,15.10
2018-11-07T09:46:52.573Z,15.50
2018-11-07T09:49:20.756Z,15.60
2018-11-07T09:51:48.959Z,15.80
2018-11-07T09:54:17.197Z,16.40
2018-11-07T09:56:45.322Z,15.70
2018-11-07T09:59:13.521Z,16.00
2018-11-07T10:01:41.715Z,16.60
2018-11-07T10:04:09.887Z,16.80
2018-11-07T10:06:38.132Z,16.90
2018-11-07T10:09:08.245Z,17.40
2018-11-07T10:11:36.488Z,17.80
2018-11-07T10:14:05.148Z,18.20
2018-11-07T10:16:33.362Z,17.60
2018-11-07T10:19:01.627Z,18.00
2018-11-07T10:21:29.825Z,18.40
2018-11-07T10:23:58.002Z,18.40
2018-11-07T10:26:26.182Z,18.60
2018-11-07T10:28:54.667Z,18.70
2018-11-07T10:31:22.815Z,18.40
2018-11-07T10:33:51.010Z,18.70
2018-11-07T10:36:19.223Z,18.90
2018-11-07T10:38:47.505Z,19.10
2018-11-07T10:41:15.659Z,19.50
2018-11-07T10:43:43.844Z,19.80
2018-11-07T10:46:12.051Z,19.50
2018-11-07T10:48:40.270Z,19.20
2018-11-07T10:51:08.448Z,20.10
2018-11-07T10:53:36.623Z,19.90
2018-11-07T10:56:04.950Z,20.00
2018-11-07T10:58:33.128Z,20.50
2018-11-07T11:01:06.698Z,20.00
2018-11-07T11:03:35.479Z,19.90
2018-11-07T11:06:03.674Z,20.50
2018-11-07T11:08:31.861Z,20.40
2018-11-07T11:11:00.075Z,20.20
2018-11-07T11:13:28.262Z,20.50
2018-11-07T11:15:56.447Z,20.40
2018-11-07T11:18:24.741Z,19.80
2018-11-07T11:20:52.930Z,20.10
2018-11-07T11:23:21.125Z,20.30
2018-11-07T11:25:49.439Z,20.60
2018-11-07T11:28:17.509Z,20.20
2018-11-07T11:30:45.698Z,20.30
2018-11-07T11:33:13.891Z,20.60
2018-11-07T11:35:42.063Z,20.70
2018-11-07T11:38:10.251Z,20.60
2018-11-07T11:40:38.444Z,20.50
2018-11-07T11:43:06.639Z,20.70
2018-11-07T11:45:34.811Z,20.30
2018-11-07T11:48:02.992Z,20.30
2018-11-07T11:50:31.166Z,20.30
2018-11-07T11:52:59.357Z,21.10
2018-11-07T11:55:27.543Z,21.10
2018-11-07T11:57:55.724Z,20.90
2018-11-07T12:00:23.912Z,20.40
2018-11-07T12:02:52.082Z,20.70
2018-11-07T12:05:20.365Z,20.40
2018-11-07T12:07:48.562Z,21.40
2018-11-07T12:10:19.889Z,20.80
2018-11-07T12:12:49.289Z,20.50
2018-11-07T12:15:18.614Z,20.90
2018-11-07T12:17:46.841Z,20.50
2018-11-07T12:20:14.949Z,20.40
2018-11-07T12:22:43.170Z,20.30
2018-11-07T12:25:12.549Z,20.60
2018-11-07T12:27:41.332Z,20.60
2018-11-07T12:30:11.505Z,20.80
2018-11-07T12:32:39.718Z,20.90
2018-11-07T12:35:07.889Z,20.50
2018-11-07T12:37:36.071Z,20.50
2018-11-07T12:40:04.787Z,20.60
2018-11-07T12:42:33.009Z,20.90
2018-11-07T12:45:01.610Z,20.10
2018-11-07T12:47:29.842Z,19.60
2018-11-07T12:49:58.156Z,20.10
2018-11-07T12:52:26.250Z,20.50
2018-11-07T12:54:54.470Z,21.20
2018-11-07T12:57:22.834Z,20.30
2018-11-07T12:59:50.818Z,20.10
2018-11-07T13:02:19.049Z,20.10
2018-11-07T13:04:47.227Z,20.10
2018-11-07T13:07:15.392Z,19.90
2018-11-07T13:09:43.590Z,20.30
2018-11-07T13:12:11.763Z,21.20
2018-11-07T13:14:39.934Z,22.30
2018-11-07T13:17:08.110Z,22.60
2018-11-07T13:19:36.249Z,22.60
2018-11-07T13:22:04.760Z,22.80
2018-11-07T13:24:32.909Z,22.30
2018-11-07T13:27:01.086Z,22.20
2018-11-07T13:29:29.259Z,22.10
2018-11-07T13:31:57.473Z,21.80
2018-11-07T13:34:25.678Z,22.10
2018-11-07T13:36:53.995Z,22.30
2018-11-07T13:39:22.116Z,21.90
2018-11-07T13:41:50.205Z,21.90
2018-11-07T13:44:18.373Z,21.80
2018-11-07T13:46:46.545Z,21.40
2018-11-07T13:49:14.942Z,19.50
2018-11-07T13:51:43.130Z,19.10
2018-11-07T13:54:11.320Z,19.10
2018-11-07T13:56:39.497Z,18.80
2018-11-07T13:59:07.719Z,18.80
2018-11-07T14:01:35.869Z,18.60
2018-11-07T14:04:04.425Z,18.60
2018-11-07T14:06:32.596Z,18.30
2018-11-07T14:09:00.774Z,18.20
2018-11-07T14:11:28.942Z,18.20
2018-11-07T14:13:57.123Z,18.20
2018-11-07T14:16:25.355Z,18.40
2018-11-07T14:18:53.502Z,18.30
2018-11-07T14:21:21.710Z,18.10
2018-11-07T14:23:49.890Z,18.20
2018-11-07T14:26:18.142Z,18.00
2018-11-07T14:28:46.367Z,17.90
2018-11-07T14:31:14.486Z,17.80
2018-11-07T14:33:42.679Z,17.80
2018-11-07T14:36:10.879Z,17.80
2018-11-07T14:38:39.097Z,17.60
2018-11-07T14:41:07.230Z,17.60
2018-11-07T14:43:35.410Z,17.60
2018-11-07T14:46:03.639Z,17.50
2018-11-07T14:48:31.835Z,17.50
2018-11-07T14:51:00.021Z,17.30
2018-11-07T14:53:28.218Z,17.30
2018-11-07T14:55:56.370Z,17.20
2018-11-07T14:58:24.601Z,17.00
2018-11-07T15:00:52.767Z,17.00
2018-11-07T15:03:20.939Z,17.00
2018-11-07T15:05:49.128Z,16.90
2018-11-07T15:08:17.353Z,16.90
2018-11-07T15:10:45.465Z,16.80
2018-11-07T15:13:13.662Z,16.90
2018-11-07T15:15:41.854Z,16.50
2018-11-07T15:18:10.037Z,16.20
2018-11-07T15:20:38.225Z,15.90
2018-11-07T15:23:06.449Z,15.80
2018-11-07T15:25:34.637Z,15.60
2018-11-07T15:28:02.826Z,15.40
2018-11-07T15:30:30.996Z,15.20
2018-11-07T15:32:59.197Z,15.10
2018-11-07T15:35:27.364Z,14.90
2018-11-07T15:37:55.554Z,14.80
2018-11-07T15:40:23.749Z,14.60
2018-11-07T15:42:51.917Z,14.40
2018-11-07T15:45:20.472Z,14.30
2018-11-07T15:47:48.673Z,14.00
2018-11-07T15:50:22.264Z,13.80
2018-11-07T15:52:50.554Z,13.50
2018-11-07T15:55:18.717Z,13.40
2018-11-07T15:57:46.901Z,13.30
2018-11-07T16:00:16.161Z,13.10
2018-11-07T16:02:44.445Z,13.00
2018-11-07T16:05:13.732Z,13.00
2018-11-07T16:07:41.936Z,12.90
2018-11-07T16:10:11.456Z,12.80
2018-11-07T16:12:40.298Z,12.70
2018-11-07T16:15:10.168Z,12.60
2018-11-07T16:17:38.307Z,12.50
2018-11-07T16:20:09.537Z,12.40
2018-11-07T16:22:37.799Z,12.20
2018-11-07T16:25:06.497Z,12.10
2018-11-07T16:27:34.770Z,12.00
2018-11-07T16:30:02.952Z,12.00
2018-11-07T16:32:31.156Z,11.90
2018-11-07T16:34:59.335Z,11.90
2018-11-07T16:37:27.597Z,11.80
2018-11-07T16:39:55.767Z,11.60
2018-11-07T16:42:24.217Z,11.40
2018-11-07T16:44:52.334Z,11.30
2018-11-07T16:47:20.525Z,11.20
2018-11-07T16:49:48.693Z,11.30
2018-11-07T16:52:16.858Z,11.20
2018-11-07T16:54:45.047Z,11.20
2018-11-07T16:57:13.222Z,11.10
2018-11-07T16:59:41.778Z,11.00
2018-11-07T17:02:09.953Z,10.90
2018-11-07T17:04:38.176Z,10.90
2018-11-07T17:07:06.296Z,10.80
2018-11-07T17:09:34.453Z,10.90
2018-11-07T17:12:02.619Z,10.70
2018-11-07T17:14:30.793Z,10.60
2018-11-07T17:16:58.955Z,10.40
2018-11-07T17:19:27.153Z,10.30
2018-11-07T17:21:55.321Z,10.30
2018-11-07T17:24:23.651Z,10.30
2018-11-07T17:26:51.710Z,10.20
2018-11-07T17:29:19.907Z,10.10
2018-11-07T17:31:48.120Z,10.10
2018-11-07T17:34:16.266Z,10.10
2018-11-07T17:36:44.429Z,10.10
2018-11-07T17:39:12.927Z,10.10
2018-11-07T17:41:41.165Z,10.10
2018-11-07T17:44:09.345Z,10.10
2018-11-07T17:46:37.522Z,10.10
2018-11-07T17:49:06.147Z,9.80
2018-11-07T17:51:35.089Z,9.60
2018-11-07T17:54:04.339Z,9.60
2018-11-07T17:56:32.572Z,9.60
2018-11-07T17:59:00.762Z,9.50
2018-11-07T18:01:28.942Z,9.40
2018-11-07T18:03:57.466Z,9.50
2018-11-07T18:06:26.756Z,9.50
2018-11-07T18:08:55.277Z,9.50
2018-11-07T18:11:25.919Z,9.50
2018-11-07T18:13:54.343Z,9.40
2018-11-07T18:16:28.024Z,9.40
2018-11-07T18:18:58.391Z,9.20
2018-11-07T18:21:26.782Z,9.10
2018-11-07T18:23:55.110Z,9.00
2018-11-07T18:26:23.344Z,8.90
2018-11-07T18:28:51.638Z,8.90
2018-11-07T18:31:19.878Z,8.70
2018-11-07T18:33:52.963Z,8.70
2018-11-07T18:36:24.416Z,8.70
2018-11-07T18:38:58.802Z,8.70
2018-11-07T18:41:27.040Z,8.70
2018-11-07T18:43:55.245Z,8.60
2018-11-07T18:46:23.425Z,8.50
2018-11-07T18:48:51.933Z,8.50
2018-11-07T18:51:20.163Z,8.40
2018-11-07T18:53:48.347Z,8.40
2018-11-07T18:56:16.559Z,8.40
2018-11-07T18:58:44.960Z,8.30
2018-11-07T19:01:14.142Z,8.30
2018-11-07T19:03:42.332Z,8.30
2018-11-07T19:06:10.522Z,8.20
2018-11-07T19:08:38.744Z,8.20
2018-11-07T19:11:07.402Z,8.20
2018-11-07T19:13:35.785Z,8.20
2018-11-07T19:16:04.009Z,8.20
2018-11-07T19:18:32.200Z,8.20
2018-11-07T19:21:00.402Z,8.10
2018-11-07T19:23:28.638Z,8.10
2018-11-07T19:25:56.927Z,8.00
2018-11-07T19:28:26.006Z,8.00
2018-11-07T19:30:54.298Z,8.10
2018-11-07T19:33:22.502Z,8.10
2018-11-07T19:35:50.970Z,8.10
2018-11-07T19:38:19.261Z,8.20
2018-11-07T19:40:47.721Z,8.30
2018-11-07T19:43:16.083Z,8.30
2018-11-07T19:45:44.431Z,8.30
2018-11-07T19:48:12.886Z,8.40
2018-11-07T19:50:41.494Z,8.30
2018-11-07T19:53:09.890Z,8.30
2018-11-07T19:55:38.179Z,8.30
2018-11-07T19:58:06.535Z,8.20
2018-11-07T20:00:37.872Z,8.20
2018-11-07T20:03:06.436Z,8.20
2018-11-07T20:05:34.943Z,8.10
2018-11-07T20:08:03.419Z,8.10
2018-11-07T20:10:31.800Z,8.10
2018-11-07T20:13:00.229Z,8.10
2018-11-07T20:15:28.621Z,8.10
2018-11-07T20:17:57.366Z,8.10
2018-11-07T20:20:25.889Z,8.10
2018-11-07T20:22:54.818Z,8.10
2018-11-07T20:25:23.065Z,8.10
2018-11-07T20:27:51.397Z,8.10
2018-11-07T20:30:20.645Z,8.10
2018-11-07T20:32:49.024Z,8.10
2018-11-07T20:35:18.636Z,8.10
2018-11-07T20:37:46.954Z,8.10
2018-11-07T20:40:16.818Z,8.10
2018-11-07T20:42:45.249Z,8.10
2018-11-07T20:45:22.149Z,8.20
2018-11-07T20:47:50.685Z,8.20
2018-11-07T20:50:20.260Z,8.10
2018-11-07T20:52:48.906Z,8.10
2018-11-07T20:55:17.646Z,8.20
2018-11-07T20:57:46.788Z,8.20
2018-11-07T21:00:23.535Z,8.30
2018-11-07T21:02:57.184Z,8.20
2018-11-07T21:05:26.650Z,8.30
2018-11-07T21:07:56.030Z,8.30
2018-11-07T21:10:26.435Z,8.30
2018-11-07T21:12:55.886Z,8.30
2018-11-07T21:15:24.768Z,8.30
2018-11-07T21:17:53.854Z,8.30
2018-11-07T21:20:23.662Z,8.30
2018-11-07T21:22:52.445Z,8.30
2018-11-07T21:25:21.240Z,8.40
2018-11-07T21:27:49.913Z,8.40
2018-11-07T21:30:18.606Z,8.40
2018-11-07T21:32:47.535Z,8.40
2018-11-07T21:35:16.261Z,8.40
2018-11-07T21:37:44.848Z,8.50
2018-11-07T21:40:15.469Z,8.50
2018-11-07T21:42:44.428Z,8.50
2018-11-07T21:45:14.143Z,8.50
2018-11-07T21:47:43.312Z,8.60
2018-11-07T21:50:14.440Z,8.50
2018-11-07T21:52:46.752Z,8.50
2018-11-07T21:55:18.860Z,8.50
2018-11-07T21:57:48.874Z,8.50
2018-11-07T22:00:18.796Z,8.50
2018-11-07T22:02:47.334Z,8.50
2018-11-07T22:05:18.112Z,8.50
2018-11-07T22:07:48.382Z,8.50
2018-11-07T22:10:19.031Z,8.60
2018-11-07T22:12:49.880Z,8.60
2018-11-07T22:15:19.471Z,8.50
2018-11-07T22:17:48.398Z,8.50
2018-11-07T22:20:19.305Z,8.40
2018-11-07T22:22:48.220Z,8.40
2018-11-07T22:25:16.715Z,8.40
2018-11-07T22:27:45.369Z,8.40
2018-11-07T22:30:19.173Z,8.40
2018-11-07T22:32:48.085Z,8.40
2018-11-07T22:35:18.047Z,8.40
2018-11-07T22:37:48.270Z,8.30
2018-11-07T22:40:17.962Z,8.30
2018-11-07T22:42:48.019Z,8.20
2018-11-07T22:45:21.581Z,8.20
2018-11-07T22:47:53.388Z,8.20
2018-11-07T22:50:24.601Z,8.20
2018-11-07T22:52:54.410Z,8.20
2018-11-07T22:55:34.202Z,8.20
2018-11-07T22:58:03.027Z,8.20
2018-11-07T23:00:36.789Z,8.20
2018-11-07T23:03:12.048Z,8.20
2018-11-07T23:05:40.448Z,8.20
2018-11-07T23:08:08.733Z,8.20
2018-11-07T23:10:41.009Z,8.20
2018-11-07T23:13:09.786Z,8.20
2018-11-07T23:15:43.679Z,8.20
2018-11-07T23:18:12.360Z,8.20
2018-11-07T23:20:41.486Z,8.20
2018-11-07T23:23:10.244Z,8.20
2018-11-07T23:25:40.908Z,8.20
2018-11-07T23:28:11.855Z,8.20
2018-11-07T23:30:42.610Z,8.20
2018-11-07T23:33:14.751Z,8.20
2018-11-07T23:35:46.590Z,8.30
2018-11-07T23:38:21.804Z,8.30
2018-11-07T23:40:56.454Z,8.30
2018-11-07T23:43:25.200Z,8.30
2018-11-07T23:45:53.541Z,8.20
2018-11-07T23:48:21.802Z,8.20
2018-11-07T23:50:51.215Z,8.30
2018-11-07T23:53:20.406Z,8.20
2018-11-07T23:55:49.706Z,8.20
2018-11-07T23:58:18.017Z,8.30
